Chia-i, Taiwan
Current Conditions -  °F | °C
As of 10:00 PM on Wednesday 22 Oct 2014 (Local Time) from RCMQ Reporting Station
Broken Clouds Broken Clouds  
Wind Chill: 21°   Ceiling: 6000
Heat Index: 21°   Visibility: 6mi
Dew Point: 15°   Wind: 20mph
Humidity: 68%   Direction: 10°N
Pressure: 29.97"   Gusts: NA
Location:  23.48°N, 120.44°E
Report Text: RCMQ 221400Z 01017KT 9999 FEW012 BKN060 21/15 Q1015 NOSIG RMK A3000
Loading
Personal Weather Stations






























Interactive Weather Map
Tropical Storm Tracking
New forecast layout! Learn more

10-Day Weather Forecast

Advertisements
Track Severe Weather on mobile